Terminal Aerodrome Forecast
Issued by NWS Sterling, VA

Current Version | Previous Version | Graphics & Text | Print | Product List | Glossary On
Versions: 1 2 3 4 5 6 7 8 9 10 11 12 13 14 15 16 17
000
FTUS41 KLWX 212330
TAFMRB
TAF
KMRB 212330Z 2200/2224 VRB03KT P6SM SCT140 BKN250
     FM221600 11007KT P6SM BKN060 BKN150
     FM222300 12005KT P6SM SCT070=

USA.gov is the U.S. government's official web portal to all federal, state and local government web resources and services.